createdAt,value
2017-12-10T06:46:31.440Z,3
2017-12-10T06:54:31.947Z,7
2017-12-10T06:58:32.161Z,10
2017-12-10T07:00:32.365Z,13
2017-12-10T07:02:32.412Z,17
2017-12-10T07:04:01.675Z,20
2017-12-10T07:05:01.752Z,23
2017-12-10T07:06:32.657Z,27
2017-12-10T07:07:32.707Z,30
2017-12-10T07:08:32.762Z,33
2017-12-10T07:09:32.830Z,37
2017-12-10T07:10:32.914Z,40
2017-12-10T07:11:02.116Z,43
2017-12-10T07:12:02.177Z,47
2017-12-10T07:13:33.088Z,50
2017-12-10T07:15:33.243Z,53
2017-12-10T07:16:02.418Z,57
2017-12-10T07:16:33.298Z,60
2017-12-10T07:17:02.488Z,63
2017-12-10T07:17:33.358Z,67
2017-12-10T07:18:02.550Z,73
2017-12-10T07:18:33.388Z,77
2017-12-10T07:19:02.556Z,80
2017-12-10T07:19:33.500Z,83
2017-12-10T07:20:02.620Z,87
2017-12-10T07:20:33.545Z,93
2017-12-10T07:21:02.747Z,97
2017-12-10T07:21:33.627Z,103
2017-12-10T07:22:02.753Z,107
2017-12-10T07:22:33.690Z,110
2017-12-10T07:23:33.715Z,113
2017-12-10T07:25:33.849Z,117
2017-12-10T07:26:02.982Z,120
2017-12-10T07:26:33.869Z,127
2017-12-10T07:27:03.048Z,130
2017-12-10T07:27:33.948Z,133
2017-12-10T07:28:03.108Z,137
2017-12-10T07:28:34.001Z,140
2017-12-10T07:29:03.167Z,143
2017-12-10T07:30:34.135Z,140
2017-12-10T07:31:03.341Z,137
2017-12-10T07:31:34.219Z,133
2017-12-10T07:32:03.389Z,130
2017-12-10T07:32:34.307Z,133
2017-12-10T07:33:03.455Z,143
2017-12-10T07:33:34.371Z,150
2017-12-10T07:34:03.528Z,157
2017-12-10T07:34:34.414Z,160
2017-12-10T07:35:03.620Z,163
2017-12-10T07:35:34.466Z,167
2017-12-10T07:36:03.674Z,170
2017-12-10T07:38:03.752Z,173
2017-12-10T07:38:34.730Z,177
2017-12-10T07:39:03.798Z,183
2017-12-10T07:40:34.773Z,187
2017-12-10T07:41:03.914Z,190
2017-12-10T07:41:34.798Z,200
2017-12-10T07:42:03.989Z,210
2017-12-10T07:42:34.897Z,213
2017-12-10T07:43:34.956Z,210
2017-12-10T07:44:04.101Z,203
2017-12-10T07:44:35.007Z,213
2017-12-10T07:45:04.152Z,223
2017-12-10T07:45:35.079Z,243
2017-12-10T07:46:04.238Z,263
2017-12-10T07:46:35.209Z,287
2017-12-10T07:47:04.314Z,310
2017-12-10T07:47:35.191Z,323
2017-12-10T07:48:04.349Z,337
2017-12-10T07:48:35.285Z,347
2017-12-10T07:49:04.452Z,357
2017-12-10T07:49:35.332Z,373
2017-12-10T07:50:04.510Z,390
2017-12-10T07:50:35.383Z,413
2017-12-10T07:51:04.556Z,433
2017-12-10T07:51:35.410Z,453
2017-12-10T07:52:04.620Z,470
2017-12-10T07:52:35.492Z,487
2017-12-10T07:53:04.698Z,500
2017-12-10T07:53:35.554Z,517
2017-12-10T07:54:04.760Z,537
2017-12-10T07:54:35.602Z,550
2017-12-10T07:55:04.824Z,557
2017-12-10T07:56:04.885Z,547
2017-12-10T07:56:35.752Z,537
2017-12-10T07:57:04.934Z,530
2017-12-10T07:58:04.987Z,520
2017-12-10T07:58:35.885Z,500
2017-12-10T07:59:05.032Z,477
2017-12-10T07:59:35.894Z,450
2017-12-10T08:00:05.128Z,433
2017-12-10T08:00:35.953Z,420
2017-12-10T08:01:05.193Z,410
2017-12-10T08:01:36.024Z,407
2017-12-10T08:02:05.271Z,397
2017-12-10T08:02:36.098Z,383
2017-12-10T08:03:05.321Z,370
2017-12-10T08:03:36.149Z,357
2017-12-10T08:04:05.371Z,350
2017-12-10T08:04:36.235Z,347
2017-12-10T08:05:05.431Z,353
2017-12-10T08:05:36.314Z,357
2017-12-10T08:07:05.519Z,353
2017-12-10T08:07:36.394Z,347
2017-12-10T08:08:05.640Z,340
2017-12-10T08:08:36.510Z,333
2017-12-10T08:09:05.708Z,330
2017-12-10T08:11:05.751Z,333
2017-12-10T08:12:36.714Z,337
2017-12-10T08:13:05.886Z,343
2017-12-10T08:13:36.762Z,353
2017-12-10T08:14:05.935Z,370
2017-12-10T08:14:36.814Z,390
2017-12-10T08:15:05.996Z,410
2017-12-10T08:15:36.909Z,427
2017-12-10T08:16:06.066Z,440
2017-12-10T08:16:36.941Z,450
2017-12-10T08:17:06.173Z,460
2017-12-10T08:17:37.053Z,473
2017-12-10T08:18:06.184Z,483
2017-12-10T08:18:37.058Z,487
2017-12-10T08:19:06.260Z,490
2017-12-10T08:19:37.189Z,507
2017-12-10T08:20:06.346Z,533
2017-12-10T08:20:37.183Z,560
2017-12-10T08:21:06.381Z,577
2017-12-10T08:21:37.253Z,580
2017-12-10T08:22:06.441Z,593
2017-12-10T08:22:37.336Z,607
2017-12-10T08:23:06.539Z,617
2017-12-10T08:23:37.480Z,620
2017-12-10T08:24:06.541Z,623
2017-12-10T08:24:37.446Z,617
2017-12-10T08:25:06.623Z,610
2017-12-10T08:25:37.521Z,607
2017-12-10T08:26:06.679Z,600
2017-12-10T08:26:37.602Z,590
2017-12-10T08:27:06.731Z,583
2017-12-10T08:27:37.631Z,587
2017-12-10T08:28:37.703Z,590
2017-12-10T08:29:06.884Z,600
2017-12-10T08:29:37.751Z,617
2017-12-10T08:30:06.923Z,640
2017-12-10T08:30:37.832Z,663
2017-12-10T08:31:06.976Z,690
2017-12-10T08:31:37.967Z,700
2017-12-10T08:32:07.095Z,703
2017-12-10T08:33:38.071Z,710
2017-12-10T08:34:07.278Z,717
2017-12-10T08:34:38.122Z,710
2017-12-10T08:36:38.244Z,700
2017-12-10T08:37:07.412Z,693
2017-12-10T08:37:38.333Z,683
2017-12-10T08:38:07.497Z,680
2017-12-10T08:38:38.425Z,687
2017-12-10T08:39:07.552Z,720
2017-12-10T08:39:38.456Z,777
2017-12-10T08:40:07.661Z,837
2017-12-10T08:40:38.485Z,887
2017-12-10T08:41:07.707Z,943
2017-12-10T08:41:38.562Z,1000
2017-12-10T08:42:07.742Z,1063
2017-12-10T08:42:38.631Z,1130
2017-12-10T08:43:07.802Z,1203
2017-12-10T08:43:38.642Z,1267
2017-12-10T08:44:07.889Z,1313
2017-12-10T08:44:38.732Z,1330
2017-12-10T08:45:07.962Z,1337
2017-12-10T08:45:38.789Z,1320
2017-12-10T08:46:08.010Z,1293
2017-12-10T08:46:38.831Z,1267
2017-12-10T08:47:08.032Z,1223
2017-12-10T08:47:38.891Z,1197
2017-12-10T08:48:08.117Z,1183
2017-12-10T08:48:38.945Z,1180
2017-12-10T08:49:39.011Z,1187
2017-12-10T08:50:08.236Z,1200
2017-12-10T08:50:39.243Z,1217
2017-12-10T08:51:08.327Z,1230
2017-12-10T08:51:39.202Z,1243
2017-12-10T08:52:08.373Z,1223
2017-12-10T08:52:39.232Z,1210
2017-12-10T08:53:08.383Z,1200
2017-12-10T08:53:39.366Z,1193
2017-12-10T08:54:08.488Z,1190
2017-12-10T08:54:39.371Z,1180
2017-12-10T08:55:08.518Z,1183
2017-12-10T08:55:39.414Z,1177
2017-12-10T08:56:08.683Z,1163
2017-12-10T08:56:39.558Z,1137
2017-12-10T08:57:08.737Z,1103
2017-12-10T08:57:39.637Z,1073
2017-12-10T08:58:08.784Z,1060
2017-12-10T08:58:39.657Z,1063
2017-12-10T08:59:08.841Z,1083
2017-12-10T08:59:39.738Z,1150
2017-12-10T09:00:08.897Z,1217
2017-12-10T09:00:39.773Z,1257
2017-12-10T09:01:08.970Z,1270
2017-12-10T09:01:39.869Z,1273
2017-12-10T09:02:39.932Z,1267
2017-12-10T09:03:09.089Z,1263
2017-12-10T09:03:39.981Z,1277
2017-12-10T09:04:09.143Z,1290
2017-12-10T09:04:40.022Z,1320
2017-12-10T09:05:09.279Z,1350
2017-12-10T09:05:40.145Z,1383
2017-12-10T09:06:09.314Z,1430
2017-12-10T09:06:40.154Z,1473
2017-12-10T09:07:09.382Z,1507
2017-12-10T09:07:40.272Z,1543
2017-12-10T09:08:09.445Z,1577
2017-12-10T09:08:40.299Z,1587
2017-12-10T09:09:09.499Z,1577
2017-12-10T09:09:40.334Z,1570
2017-12-10T09:10:11.093Z,1573
2017-12-10T09:10:40.434Z,1583
2017-12-10T09:11:09.585Z,1603
2017-12-10T09:11:40.462Z,1627
2017-12-10T09:12:09.662Z,1667
2017-12-10T09:12:40.538Z,1723
2017-12-10T09:13:09.696Z,1790
2017-12-10T09:13:40.610Z,1850
2017-12-10T09:14:09.753Z,1887
2017-12-10T09:14:40.640Z,1883
2017-12-10T09:15:40.799Z,1870
2017-12-10T09:16:09.880Z,1863
2017-12-10T09:16:40.793Z,1870
2017-12-10T09:17:09.945Z,1887
2017-12-10T09:17:40.833Z,1893
2017-12-10T09:18:10.015Z,1917
2017-12-10T09:18:40.901Z,1950
2017-12-10T09:19:10.061Z,1973
2017-12-10T09:19:41.002Z,1980
2017-12-10T09:20:10.144Z,1997
2017-12-10T09:20:41.062Z,1977
2017-12-10T09:21:10.186Z,1937
2017-12-10T09:21:41.134Z,1917
2017-12-10T09:22:10.248Z,1877
2017-12-10T09:22:41.201Z,1813
2017-12-10T09:23:10.356Z,1763
2017-12-10T09:23:41.324Z,1707
2017-12-10T09:24:10.399Z,1637
2017-12-10T09:24:41.271Z,1573
2017-12-10T09:25:10.495Z,1520
2017-12-10T09:25:41.386Z,1473
2017-12-10T09:26:10.544Z,1450
2017-12-10T09:27:10.610Z,1477
2017-12-10T09:27:41.498Z,1520
2017-12-10T09:28:10.636Z,1580
2017-12-10T09:28:41.497Z,1653
2017-12-10T09:29:10.754Z,1707
2017-12-10T09:29:41.583Z,1753
2017-12-10T09:30:10.779Z,1797
2017-12-10T09:30:41.712Z,1833
2017-12-10T09:31:10.846Z,1873
2017-12-10T09:31:41.708Z,1910
2017-12-10T09:32:10.900Z,1937
2017-12-10T09:32:41.828Z,1963
2017-12-10T09:33:10.983Z,2000
2017-12-10T09:33:41.819Z,2057
2017-12-10T09:34:11.037Z,2120
2017-12-10T09:34:41.934Z,2173
2017-12-10T09:35:11.106Z,2227
2017-12-10T09:35:41.942Z,2273
2017-12-10T09:36:11.107Z,2307
2017-12-10T09:36:41.987Z,2330
2017-12-10T09:37:11.247Z,2343
2017-12-10T09:38:11.271Z,2337
2017-12-10T09:38:42.184Z,2323
2017-12-10T09:39:11.368Z,2310
2017-12-10T09:39:42.251Z,2307
2017-12-10T09:40:11.370Z,2303
2017-12-10T09:40:42.306Z,2290
2017-12-10T09:41:11.467Z,2277
2017-12-10T09:41:42.370Z,2260
2017-12-10T09:42:11.539Z,2247
2017-12-10T09:42:42.407Z,2233
2017-12-10T09:43:11.559Z,2213
2017-12-10T09:43:42.446Z,2200
2017-12-10T09:44:11.699Z,2210
2017-12-10T09:44:42.608Z,2227
2017-12-10T09:45:11.703Z,2237
2017-12-10T09:45:42.637Z,2243
2017-12-10T09:46:11.819Z,2250
2017-12-10T09:47:11.829Z,2237
2017-12-10T09:47:42.708Z,2220
2017-12-10T09:48:11.891Z,2207
2017-12-10T09:48:43.104Z,2197
2017-12-10T09:49:11.972Z,2200
2017-12-10T09:49:42.832Z,2240
2017-12-10T09:50:12.026Z,2300
2017-12-10T09:50:42.904Z,2363
2017-12-10T09:51:12.117Z,2437
2017-12-10T09:51:42.991Z,2510
2017-12-10T09:52:12.133Z,2587
2017-12-10T09:52:43.088Z,2663
2017-12-10T09:53:12.240Z,2717
2017-12-10T09:53:43.145Z,2767
2017-12-10T09:54:12.330Z,2820
2017-12-10T09:54:43.143Z,2883
2017-12-10T09:55:12.357Z,3000
2017-12-10T09:55:43.199Z,3153
2017-12-10T09:56:12.444Z,3313
2017-12-10T09:56:43.430Z,3470
2017-12-10T09:57:12.497Z,3647
2017-12-10T09:57:43.366Z,3827
2017-12-10T09:58:12.511Z,3953
2017-12-10T09:58:43.462Z,4043
2017-12-10T09:59:12.673Z,4097
2017-12-10T09:59:43.484Z,4063
2017-12-10T10:00:12.625Z,3997
2017-12-10T10:00:43.556Z,3940
2017-12-10T10:01:12.743Z,3870
2017-12-10T10:01:43.622Z,3740
2017-12-10T10:02:12.788Z,3637
2017-12-10T10:02:43.664Z,3577
2017-12-10T10:03:12.810Z,3570
2017-12-10T10:03:43.736Z,3583
2017-12-10T10:04:12.872Z,3553
2017-12-10T10:04:43.779Z,3417
2017-12-10T10:05:12.938Z,3210
2017-12-10T10:05:43.867Z,2987
2017-12-10T10:06:13.033Z,2803
2017-12-10T10:06:43.946Z,2670
2017-12-10T10:07:13.061Z,2563
2017-12-10T10:07:44.021Z,2480
2017-12-10T10:08:13.130Z,2420
2017-12-10T10:08:44.055Z,2373
2017-12-10T10:09:13.197Z,2347
2017-12-10T10:09:44.058Z,2330
2017-12-10T10:10:13.240Z,2320
2017-12-10T10:10:44.195Z,2310
2017-12-10T10:11:13.367Z,2300
2017-12-10T10:11:44.260Z,2290
2017-12-10T10:12:13.413Z,2283
2017-12-10T10:12:44.360Z,2280
2017-12-10T10:13:13.455Z,2283
2017-12-10T10:13:44.342Z,2307
2017-12-10T10:14:13.523Z,2350
2017-12-10T10:14:44.404Z,2400
2017-12-10T10:15:13.594Z,2437
2017-12-10T10:15:44.494Z,2433
2017-12-10T10:16:13.720Z,2407
2017-12-10T10:16:44.497Z,2367
2017-12-10T10:17:13.672Z,2343
2017-12-10T10:17:44.564Z,2330
2017-12-10T10:18:13.782Z,2333
2017-12-10T10:18:44.647Z,2347
2017-12-10T10:19:13.850Z,2360
2017-12-10T10:19:44.686Z,2380
2017-12-10T10:20:13.895Z,2407
2017-12-10T10:20:44.774Z,2423
2017-12-10T10:21:14.005Z,2437
2017-12-10T10:21:44.859Z,2450
2017-12-10T10:22:13.982Z,2470
2017-12-10T10:22:45.144Z,2503
2017-12-10T10:23:14.093Z,2550
2017-12-10T10:23:44.935Z,2607
2017-12-10T10:24:14.210Z,2670
2017-12-10T10:24:45.061Z,2730
2017-12-10T10:25:14.213Z,2773
2017-12-10T10:25:45.130Z,2830
2017-12-10T10:26:14.408Z,2853
2017-12-10T10:26:45.156Z,2867
2017-12-10T10:27:14.354Z,2873
2017-12-10T10:27:45.189Z,2900
2017-12-10T10:28:14.426Z,2930
2017-12-10T10:28:45.282Z,2973
2017-12-10T10:29:14.477Z,3000
2017-12-10T10:29:45.342Z,3043
2017-12-10T10:30:14.532Z,3083
2017-12-10T10:30:45.435Z,3150
2017-12-10T10:31:14.607Z,3227
2017-12-10T10:31:45.478Z,3307
2017-12-10T10:32:14.662Z,3377
2017-12-10T10:32:46.121Z,3437
2017-12-10T10:33:14.667Z,3493
2017-12-10T10:33:45.596Z,3533
2017-12-10T10:34:14.760Z,3547
2017-12-10T10:34:45.636Z,3543
2017-12-10T10:35:14.825Z,3523
2017-12-10T10:35:45.691Z,3483
2017-12-10T10:36:14.911Z,3413
2017-12-10T10:36:45.791Z,3327
2017-12-10T10:37:14.918Z,3207
2017-12-10T10:37:45.853Z,3080
2017-12-10T10:38:14.981Z,2960
2017-12-10T10:38:45.859Z,2843
2017-12-10T10:39:15.116Z,2753
2017-12-10T10:39:45.927Z,2677
2017-12-10T10:40:15.096Z,2610
2017-12-10T10:40:45.980Z,2560
2017-12-10T10:41:15.181Z,2520
2017-12-10T10:41:46.039Z,2483
2017-12-10T10:42:15.244Z,2453
2017-12-10T10:42:46.100Z,2430
2017-12-10T10:43:15.304Z,2413
2017-12-10T10:43:46.340Z,2407
2017-12-10T10:44:46.229Z,2410
2017-12-10T10:45:15.417Z,2407
2017-12-10T10:45:46.325Z,2400
2017-12-10T10:46:15.556Z,2390
2017-12-10T10:46:46.403Z,2380
2017-12-10T10:47:46.439Z,2383
2017-12-10T10:48:15.597Z,2390
2017-12-10T10:48:46.495Z,2393
2017-12-10T10:49:15.660Z,2403
2017-12-10T10:49:46.564Z,2423
2017-12-10T10:50:15.722Z,2447
2017-12-10T10:50:46.648Z,2483
2017-12-10T10:51:15.841Z,2527
2017-12-10T10:51:46.687Z,2560
2017-12-10T10:52:15.840Z,2600
2017-12-10T10:52:46.829Z,2640
2017-12-10T10:53:15.900Z,2683
2017-12-10T10:53:46.805Z,2730
2017-12-10T10:54:17.467Z,2777
2017-12-10T10:54:46.915Z,2817
2017-12-10T10:55:16.018Z,2840
2017-12-10T10:55:46.941Z,2847
2017-12-10T10:56:47.070Z,2827
2017-12-10T10:57:16.149Z,2790
2017-12-10T10:57:47.076Z,2743
2017-12-10T10:58:16.266Z,2690
2017-12-10T10:58:47.089Z,2647
2017-12-10T10:59:16.263Z,2610
2017-12-10T10:59:47.179Z,2587
2017-12-10T11:00:16.360Z,2577
2017-12-10T11:00:47.246Z,2573
2017-12-10T11:01:16.421Z,2587
2017-12-10T11:01:47.332Z,2613
2017-12-10T11:02:16.501Z,2647
2017-12-10T11:02:47.381Z,2687
2017-12-10T11:03:16.548Z,2723
2017-12-10T11:03:47.425Z,2747
2017-12-10T11:04:16.626Z,2757
2017-12-10T11:04:47.491Z,2763
2017-12-10T11:05:16.686Z,2747
2017-12-10T11:05:47.566Z,2710
2017-12-10T11:06:16.748Z,2667
2017-12-10T11:06:47.653Z,2620
2017-12-10T11:07:16.796Z,2563
2017-12-10T11:07:47.646Z,2520
2017-12-10T11:08:16.820Z,2487
2017-12-10T11:08:47.720Z,2463
2017-12-10T11:09:16.998Z,2440
2017-12-10T11:09:47.760Z,2417
2017-12-10T11:10:16.994Z,2393
2017-12-10T11:10:47.859Z,2370
2017-12-10T11:11:17.056Z,2353
2017-12-10T11:11:47.887Z,2347
2017-12-10T11:12:17.097Z,2343
2017-12-10T11:12:47.942Z,2340
2017-12-10T11:14:17.244Z,2347
2017-12-10T11:14:48.091Z,2360
2017-12-10T11:15:17.305Z,2377
2017-12-10T11:15:48.148Z,2390
2017-12-10T11:16:17.364Z,2403
2017-12-10T11:16:48.309Z,2417
2017-12-10T11:17:17.428Z,2433
2017-12-10T11:17:48.248Z,2453
2017-12-10T11:18:17.483Z,2477
2017-12-10T11:18:48.376Z,2500
2017-12-10T11:19:17.548Z,2517
2017-12-10T11:19:48.387Z,2520
2017-12-10T11:20:17.614Z,2500
2017-12-10T11:20:48.459Z,2470
2017-12-10T11:21:17.643Z,2427
2017-12-10T11:21:48.584Z,2383
2017-12-10T11:22:17.737Z,2340
2017-12-10T11:22:48.581Z,2297
2017-12-10T11:23:17.750Z,2257
2017-12-10T11:23:48.624Z,2223
2017-12-10T11:24:17.839Z,2197
2017-12-10T11:24:48.689Z,2180
2017-12-10T11:25:17.864Z,2170
2017-12-10T11:27:18.033Z,2163
2017-12-10T11:27:48.865Z,2153
2017-12-10T11:28:18.044Z,2140
2017-12-10T11:28:48.926Z,2133
2017-12-10T11:29:18.109Z,2117
2017-12-10T11:29:48.990Z,2100
2017-12-10T11:30:18.239Z,2087
2017-12-10T11:30:49.053Z,2083
2017-12-10T11:31:18.257Z,2080
2017-12-10T11:31:49.152Z,2093
2017-12-10T11:32:18.368Z,2110
2017-12-10T11:32:49.200Z,2137
2017-12-10T11:33:18.390Z,2177
2017-12-10T11:33:49.274Z,2220
2017-12-10T11:34:18.466Z,2263
2017-12-10T11:34:49.330Z,2297
2017-12-10T11:35:18.553Z,2323
2017-12-10T11:35:49.401Z,2347
2017-12-10T11:36:18.584Z,2367
2017-12-10T11:36:49.447Z,2387
2017-12-10T11:37:18.602Z,2410
2017-12-10T11:37:49.529Z,2430
2017-12-10T11:38:18.724Z,2450
2017-12-10T11:38:49.652Z,2460
2017-12-10T11:39:18.783Z,2457
2017-12-10T11:39:49.664Z,2440
2017-12-10T11:40:18.804Z,2413
2017-12-10T11:40:49.698Z,2377
2017-12-10T11:41:18.840Z,2340
2017-12-10T11:41:49.797Z,2300
2017-12-10T11:42:18.905Z,2263
2017-12-10T11:42:49.877Z,2230
2017-12-10T11:43:19.024Z,2203
2017-12-10T11:43:50.022Z,2183
2017-12-10T11:44:19.044Z,2160
2017-12-10T11:44:49.950Z,2140
2017-12-10T11:45:19.105Z,2123
2017-12-10T11:45:50.071Z,2097
2017-12-10T11:46:19.152Z,2070
2017-12-10T11:46:50.046Z,2043
2017-12-10T11:47:19.226Z,2020
2017-12-10T11:47:50.233Z,1997
2017-12-10T11:48:19.271Z,1973
2017-12-10T11:48:50.159Z,1957
2017-12-10T11:49:19.386Z,1937
2017-12-10T11:49:50.234Z,1923
2017-12-10T11:50:19.470Z,1913
2017-12-10T11:50:50.332Z,1897
2017-12-10T11:51:19.531Z,1887
2017-12-10T11:51:50.392Z,1873
2017-12-10T11:52:19.617Z,1860
2017-12-10T11:52:50.461Z,1847
2017-12-10T11:53:19.607Z,1837
2017-12-10T11:53:50.538Z,1833
2017-12-10T11:54:19.704Z,1827
2017-12-10T11:55:19.791Z,1830
2017-12-10T11:56:19.853Z,1833
2017-12-10T11:56:50.665Z,1837
2017-12-10T11:57:19.894Z,1840
2017-12-10T11:59:20.024Z,1837
2017-12-10T11:59:50.851Z,1833
2017-12-10T12:00:20.120Z,1827
2017-12-10T12:00:51.000Z,1817
2017-12-10T12:01:20.188Z,1807
2017-12-10T12:01:51.037Z,1793
2017-12-10T12:02:20.230Z,1780
2017-12-10T12:02:51.336Z,1767
2017-12-10T12:03:20.331Z,1753
2017-12-10T12:03:51.205Z,1737
2017-12-10T12:04:20.331Z,1723
2017-12-10T12:04:51.196Z,1710
2017-12-10T12:05:20.399Z,1700
2017-12-10T12:05:51.293Z,1690
2017-12-10T12:06:20.442Z,1680
2017-12-10T12:06:51.390Z,1667
2017-12-10T12:07:20.509Z,1653
2017-12-10T12:07:51.445Z,1640
2017-12-10T12:08:20.576Z,1627
2017-12-10T12:08:51.492Z,1610
2017-12-10T12:09:20.633Z,1593
2017-12-10T12:09:51.535Z,1573
2017-12-10T12:10:20.721Z,1557
2017-12-10T12:10:51.562Z,1537
2017-12-10T12:11:20.745Z,1517
2017-12-10T12:11:51.647Z,1500
2017-12-10T12:12:20.822Z,1487
2017-12-10T12:12:51.736Z,1470
2017-12-10T12:13:20.865Z,1457
2017-12-10T12:13:51.803Z,1443
2017-12-10T12:14:20.940Z,1430
2017-12-10T12:14:51.808Z,1423
2017-12-10T12:15:21.046Z,1420
2017-12-10T12:15:51.870Z,1413
2017-12-10T12:16:21.095Z,1410
2017-12-10T12:16:51.930Z,1407
2017-12-10T12:17:21.164Z,1403
2017-12-10T12:17:51.997Z,1400
2017-12-10T12:18:21.173Z,1403
2017-12-10T12:18:52.372Z,1407
2017-12-10T12:20:52.220Z,1403
2017-12-10T12:21:21.408Z,1397
2017-12-10T12:21:52.276Z,1383
2017-12-10T12:22:21.451Z,1367
2017-12-10T12:22:52.430Z,1343
2017-12-10T12:23:21.479Z,1317
2017-12-10T12:23:52.431Z,1287
2017-12-10T12:24:23.082Z,1260
2017-12-10T12:24:52.438Z,1233
2017-12-10T12:25:21.645Z,1217
2017-12-10T12:25:52.530Z,1203
2017-12-10T12:26:21.670Z,1190
2017-12-10T12:26:52.616Z,1187
2017-12-10T12:27:21.751Z,1180
2017-12-10T12:27:52.647Z,1173
2017-12-10T12:28:21.787Z,1167
2017-12-10T12:28:52.746Z,1157
2017-12-10T12:29:21.904Z,1147
2017-12-10T12:29:52.795Z,1137
2017-12-10T12:30:21.910Z,1123
2017-12-10T12:30:52.837Z,1113
2017-12-10T12:31:21.972Z,1103
2017-12-10T12:31:52.888Z,1097
2017-12-10T12:32:22.091Z,1087
2017-12-10T12:32:52.943Z,1077
2017-12-10T12:33:22.138Z,1067
2017-12-10T12:33:52.992Z,1060
2017-12-10T12:34:22.240Z,1050
2017-12-10T12:34:53.071Z,1047
2017-12-10T12:35:22.216Z,1037
2017-12-10T12:35:53.131Z,1030
2017-12-10T12:36:22.369Z,1023
2017-12-10T12:36:53.193Z,1020
2017-12-10T12:37:22.368Z,1013
2017-12-10T12:37:53.257Z,1010
2017-12-10T12:38:22.402Z,1007
2017-12-10T12:38:53.319Z,1003
2017-12-10T12:39:22.553Z,997
2017-12-10T12:40:22.637Z,993
2017-12-10T12:42:53.547Z,990
2017-12-10T12:43:22.725Z,983
2017-12-10T12:43:53.627Z,980
2017-12-10T12:44:22.859Z,973
2017-12-10T12:44:53.648Z,963
2017-12-10T12:45:22.872Z,953
2017-12-10T12:45:53.728Z,943
2017-12-10T12:46:22.920Z,933
2017-12-10T12:46:53.787Z,920
2017-12-10T12:47:23.010Z,907
2017-12-10T12:47:53.831Z,893
2017-12-10T12:48:23.045Z,883
2017-12-10T12:48:53.907Z,867
2017-12-10T12:49:23.148Z,853
2017-12-10T12:49:53.953Z,847
2017-12-10T12:50:23.228Z,837
2017-12-10T12:50:54.025Z,827
2017-12-10T12:51:23.259Z,820
2017-12-10T12:51:54.130Z,813
2017-12-10T12:52:54.145Z,810
2017-12-10T12:53:23.377Z,803
2017-12-10T12:53:54.202Z,800
2017-12-10T12:54:23.464Z,797
2017-12-10T12:54:54.302Z,790
2017-12-10T12:55:23.754Z,787
2017-12-10T12:55:54.387Z,783
2017-12-10T12:56:23.533Z,777
2017-12-10T12:56:54.416Z,767
2017-12-10T12:57:23.576Z,760
2017-12-10T12:57:54.475Z,753
2017-12-10T12:58:23.629Z,747
2017-12-10T12:58:54.547Z,740
2017-12-10T12:59:25.278Z,737
2017-12-10T12:59:54.632Z,733
2017-12-10T13:00:23.750Z,727
2017-12-10T13:00:54.642Z,717
2017-12-10T13:01:23.824Z,713
2017-12-10T13:01:54.700Z,707
2017-12-10T13:02:23.878Z,703
2017-12-10T13:04:24.046Z,707
2017-12-10T13:04:54.922Z,710
2017-12-10T13:05:54.945Z,713
2017-12-10T13:07:24.224Z,710
2017-12-10T13:07:55.063Z,707
2017-12-10T13:08:24.251Z,700
2017-12-10T13:08:55.120Z,690
2017-12-10T13:09:24.359Z,680
2017-12-10T13:09:55.181Z,667
2017-12-10T13:10:24.422Z,653
2017-12-10T13:10:55.261Z,643
2017-12-10T13:11:24.447Z,633
2017-12-10T13:11:55.343Z,623
2017-12-10T13:12:24.529Z,613
2017-12-10T13:12:55.397Z,603
2017-12-10T13:13:24.554Z,597
2017-12-10T13:13:55.454Z,587
2017-12-10T13:14:24.679Z,577
2017-12-10T13:14:55.569Z,570
2017-12-10T13:15:24.696Z,560
2017-12-10T13:15:55.595Z,553
2017-12-10T13:16:24.749Z,550
2017-12-10T13:16:55.658Z,547
2017-12-10T13:17:24.804Z,543
2017-12-10T13:18:55.810Z,547
2017-12-10T13:20:24.994Z,550
2017-12-10T13:21:25.055Z,553
2017-12-10T13:21:55.963Z,557
2017-12-10T13:22:56.028Z,560
2017-12-10T13:23:25.197Z,563
2017-12-10T13:23:56.080Z,570
2017-12-10T13:24:25.332Z,573
2017-12-10T13:24:56.153Z,577
2017-12-10T13:25:56.268Z,573
2017-12-10T13:26:25.395Z,570
2017-12-10T13:26:56.321Z,560
2017-12-10T13:27:25.460Z,550
2017-12-10T13:27:56.330Z,540
2017-12-10T13:28:25.536Z,530
2017-12-10T13:28:56.473Z,523
2017-12-10T13:29:25.588Z,517
2017-12-10T13:29:56.466Z,507
2017-12-10T13:30:25.658Z,500
2017-12-10T13:30:56.493Z,493
2017-12-10T13:31:25.747Z,487
2017-12-10T13:31:56.555Z,477
2017-12-10T13:32:25.775Z,470
2017-12-10T13:32:56.624Z,463
2017-12-10T13:33:25.832Z,457
2017-12-10T13:33:56.677Z,453
2017-12-10T13:34:25.883Z,443
2017-12-10T13:34:56.759Z,440
2017-12-10T13:35:25.915Z,433
2017-12-10T13:36:26.052Z,430
2017-12-10T13:37:56.917Z,433
2017-12-10T13:39:57.056Z,430
2017-12-10T13:40:57.124Z,427
2017-12-10T13:43:26.464Z,423
2017-12-10T13:43:57.314Z,417
2017-12-10T13:44:26.518Z,413
2017-12-10T13:44:57.408Z,410
2017-12-10T13:45:26.536Z,407
2017-12-10T13:45:58.978Z,403
2017-12-10T13:46:26.638Z,397
2017-12-10T13:46:57.868Z,393
2017-12-10T13:47:26.651Z,383
2017-12-10T13:47:57.569Z,377
2017-12-10T13:48:26.736Z,370
2017-12-10T13:48:57.620Z,363
2017-12-10T13:49:26.771Z,357
2017-12-10T13:49:57.686Z,353
2017-12-10T13:50:57.805Z,350
2017-12-10T13:51:26.904Z,347
2017-12-10T13:51:57.779Z,343
2017-12-10T13:52:26.957Z,340
2017-12-10T13:52:57.842Z,337
2017-12-10T13:53:27.086Z,330
2017-12-10T13:53:57.913Z,323
2017-12-10T13:54:27.099Z,317
2017-12-10T13:54:57.960Z,310
2017-12-10T13:55:27.143Z,303
2017-12-10T13:55:58.030Z,297
2017-12-10T13:56:27.203Z,290
2017-12-10T13:56:58.080Z,283
2017-12-10T13:57:27.267Z,277
2017-12-10T13:57:58.144Z,270
2017-12-10T13:58:27.378Z,263
2017-12-10T13:58:58.215Z,257
2017-12-10T13:59:27.451Z,253
2017-12-10T13:59:58.412Z,250
2017-12-10T14:00:27.564Z,247
2017-12-10T14:00:58.453Z,243
2017-12-10T14:01:27.610Z,240
2017-12-10T14:01:58.509Z,237
2017-12-10T14:02:27.651Z,233
2017-12-10T14:02:58.581Z,227
2017-12-10T14:03:27.699Z,223
2017-12-10T14:03:58.610Z,217
2017-12-10T14:04:27.784Z,213
2017-12-10T14:04:58.725Z,210
2017-12-10T14:05:27.833Z,203
2017-12-10T14:06:27.899Z,197
2017-12-10T14:06:58.758Z,193
2017-12-10T14:07:27.949Z,187
2017-12-10T14:07:58.848Z,180
2017-12-10T14:08:28.018Z,177
2017-12-10T14:08:58.914Z,170
2017-12-10T14:09:28.073Z,167
2017-12-10T14:09:59.032Z,160
2017-12-10T14:10:28.122Z,157
2017-12-10T14:10:59.094Z,153
2017-12-10T14:11:59.102Z,147
2017-12-10T14:12:28.244Z,143
2017-12-10T14:13:28.367Z,140
2017-12-10T14:13:59.271Z,137
2017-12-10T14:14:28.389Z,127
2017-12-10T14:14:59.289Z,123
2017-12-10T14:15:28.445Z,120
2017-12-10T14:15:59.346Z,117
2017-12-10T14:16:28.519Z,110
2017-12-10T14:16:59.467Z,107
2017-12-10T14:17:28.594Z,103
2017-12-10T14:17:59.458Z,100
2017-12-10T14:18:28.668Z,87
2017-12-10T14:18:59.534Z,83
2017-12-10T14:19:28.700Z,80
2017-12-10T14:19:59.600Z,77
2017-12-10T14:20:59.667Z,73
2017-12-10T14:21:28.882Z,67
2017-12-10T14:22:28.920Z,63
2017-12-10T14:23:59.821Z,57
2017-12-10T14:26:59.996Z,50
2017-12-10T14:27:29.273Z,47
2017-12-10T14:28:29.280Z,50
2017-12-10T14:30:00.208Z,47
2017-12-10T14:31:29.443Z,43
2017-12-10T14:34:01.700Z,47
2017-12-10T14:41:00.868Z,50
2017-12-10T14:42:30.110Z,53
2017-12-10T14:46:01.172Z,50
2017-12-10T14:50:01.419Z,47
2017-12-10T14:51:30.673Z,43
2017-12-10T14:52:30.723Z,40
2017-12-10T14:53:01.658Z,37
2017-12-10T14:53:30.782Z,33
2017-12-10T14:54:30.943Z,30
2017-12-10T14:55:30.927Z,27
2017-12-10T14:57:31.026Z,23
2017-12-10T15:01:02.124Z,20
2017-12-10T15:04:02.355Z,17
2017-12-10T15:06:31.624Z,13
2017-12-10T15:13:03.056Z,10
2017-12-10T15:18:03.234Z,7
2017-12-10T15:23:32.705Z,3
2017-12-10T15:33:04.125Z,0
